ADDS TAF Board (Experimental) INFO Settings

IDs: Format: Expanded Condensed

KBWI - Baltimore-Washington, MD, US

Issued at 1139 UTC 01 Apr 2015
Updated at: 1311 UTC 01 Apr 2015
Time1254Z 01/14Z 01/15Z 01/16Z 01/17Z 01/18Z 01/19Z 01/20Z 01/21Z 01/22Z 01/23Z 02/00Z 02/01Z 02/02Z
Type OBS PRVL PRVL PRVL PRVL PRVL PRVL PRVL PRVL PRVL PRVL PRVL PRVL PRVL
VIS 10 >6 >6 >6 >6 >6 >6 >6 >6 >6 >6 >6 >6 >6
CIG -- -- -- -- -- -- -- -- -- -- -- -- -- --
Cover FEW FEW FEW FEW FEW FEW FEW FEW FEW FEW FEW FEW FEW FEW
FltCat VFR VFR VFR VFR VFR VFR VFR VFR VFR VFR VFR VFR VFR VFR
WX -- -- -- -- -- -- -- -- -- -- -- -- -- --
WDir 310 VRB 310 310 310 310 310 310 310 310 310 310 310 310
WSpd 4 0 7 7 7 7 7 7 7 7 7 7 7 7
WGst -- -- -- -- -- -- -- -- -- -- -- -- -- --
R04/22
XWnd 4 VRB 7 7 7 7 7 7 7 7 7 7 7 7
HWnd 0 VRB 1 1 1 1 1 1 1 1 1 1 1 1
R10/28
XWnd 2 VRB 4 4 4 4 4 4 4 4 4 4 4 4
HWnd -3 VRB -6 -6 -6 -6 -6 -6 -6 -6 -6 -6 -6 -6
R15/33
XWnd -1 VRB -2 -2 -2 -2 -2 -2 -2 -2 -2 -2 -2 -2
HWnd -4 VRB -7 -7 -7 -7 -7 -7 -7 -7 -7 -7 -7 -7

NOTE: TEMPO conditions in [brackets]. Keep in mind TEMPO conditions might be better (lower impact) than prevailing conditions.

Raw TAF
KBWI 011139Z 0112/0218 00000KT P6SM FEW250
  FM011500 31007KT P6SM FEW250
  FM021400 19014KT P6SM SKC


Raw METAR
KBWI 011254Z 31004KT 10SM FEW250 06/M03 A3012 RMK AO2 SLP199 T00561028
KBWI 011154Z 28003KT 10SM FEW250 02/M02 A3009 RMK AO2 SLP190 70003 T00221017 10039 21006 53038
KBWI 011054Z 00000KT 10SM FEW250 00/M02 A3005 RMK AO2 SLP176 T00001022

METAR Board
Radar Display
Forecast Discussion

TAF Board Legend

Potential Impact
Threat None Slight Moderate High
Visibility (sm) ≥5.1 5.1>X≥3 3>X≥1 <1
Ceiling (100 ft) ≥30.1 30.1>X≥10 10>X≥5 <5
Wind Speed (kt) <10 10≤X<20 20≤X<30 ≥30
Wind Gust (kt) <15 15≤X<25 25≤X<35 ≥35
Weather No Wx Reported VCTS,-TS,-FZRA,SN TS,FZRA +TS,+FZRA,+SN